createdAt,value
2023-02-28T00:00:40.997Z,4.20
2023-02-28T00:03:11.424Z,4.10
2023-02-28T00:05:42.594Z,4.10
2023-02-28T00:08:15.728Z,4.10
2023-02-28T00:10:46.060Z,4.00
2023-02-28T00:13:17.849Z,4.00
2023-02-28T00:15:48.135Z,4.00
2023-02-28T00:18:18.482Z,4.10
2023-02-28T00:20:49.082Z,4.00
2023-02-28T00:23:22.149Z,4.00
2023-02-28T00:25:52.833Z,3.90
2023-02-28T00:28:23.685Z,3.90
2023-02-28T00:30:54.241Z,3.90
2023-02-28T00:33:24.630Z,3.90
2023-02-28T00:35:54.975Z,4.00
2023-02-28T00:38:28.042Z,3.90
2023-02-28T00:40:59.650Z,3.80
2023-02-28T00:43:30.053Z,3.90
2023-02-28T00:46:00.431Z,3.90
2023-02-28T00:48:30.924Z,3.80
2023-02-28T00:51:01.301Z,3.90
2023-02-28T00:53:34.318Z,3.70
2023-02-28T00:56:04.936Z,3.70
2023-02-28T00:58:36.373Z,3.70
2023-02-28T01:01:06.848Z,3.60
2023-02-28T01:03:37.801Z,3.60
2023-02-28T01:06:08.850Z,3.60
2023-02-28T01:08:42.081Z,3.50
2023-02-28T01:11:13.443Z,3.50
2023-02-28T01:13:45.402Z,3.50
2023-02-28T01:16:16.844Z,3.50
2023-02-28T01:18:47.568Z,3.50
2023-02-28T01:21:19.974Z,3.40
2023-02-28T01:23:53.808Z,3.50
2023-02-28T01:26:26.223Z,3.50
2023-02-28T01:28:57.572Z,3.40
2023-02-28T01:31:30.233Z,3.30
2023-02-28T01:34:00.858Z,3.40
2023-02-28T01:36:32.764Z,3.40
2023-02-28T01:39:06.049Z,3.40
2023-02-28T01:41:38.434Z,3.30
2023-02-28T01:44:10.840Z,3.30
2023-02-28T01:46:44.184Z,3.30
2023-02-28T01:49:21.037Z,3.30
2023-02-28T01:51:55.895Z,3.30
2023-02-28T01:54:33.777Z,3.20
2023-02-28T01:57:08.502Z,3.20
2023-02-28T01:59:42.680Z,3.20
2023-02-28T02:02:13.132Z,3.20
2023-02-28T02:04:50.528Z,3.20
2023-02-28T02:07:21.147Z,3.20
2023-02-28T02:09:54.212Z,3.30
2023-02-28T02:12:35.590Z,3.20
2023-02-28T02:15:10.368Z,3.20
2023-02-28T02:17:45.820Z,3.20
2023-02-28T02:20:50.441Z,3.00
2023-02-28T02:23:54.366Z,3.00
2023-02-28T02:26:58.705Z,3.00
2023-02-28T02:29:45.844Z,3.00
2023-02-28T02:32:41.899Z,3.00
2023-02-28T02:35:20.293Z,2.90
2023-02-28T02:37:52.785Z,2.90
2023-02-28T02:40:26.304Z,2.90
2023-02-28T02:43:02.925Z,2.90
2023-02-28T02:45:39.959Z,2.90
2023-02-28T02:48:16.450Z,2.80
2023-02-28T02:50:53.514Z,2.90
2023-02-28T02:53:29.164Z,2.80
2023-02-28T02:56:01.875Z,2.80
2023-02-28T02:58:43.027Z,2.70
2023-02-28T03:01:17.991Z,2.70
2023-02-28T03:03:50.591Z,2.80
2023-02-28T03:06:23.552Z,2.70
2023-02-28T03:08:53.930Z,2.70
2023-02-28T03:11:27.240Z,2.70
2023-02-28T03:14:11.117Z,2.80
2023-02-28T03:17:08.656Z,2.60
2023-02-28T03:19:49.429Z,2.60
2023-02-28T03:22:37.023Z,2.60
2023-02-28T03:25:11.999Z,2.60
2023-02-28T03:27:46.300Z,2.60
2023-02-28T03:30:20.782Z,2.70
2023-02-28T03:32:56.877Z,2.60
2023-02-28T03:35:29.878Z,2.50
2023-02-28T03:38:08.057Z,2.50
2023-02-28T03:40:43.182Z,2.50
2023-02-28T03:43:18.777Z,2.50
2023-02-28T03:45:51.425Z,2.50
2023-02-28T03:48:26.434Z,2.40
2023-02-28T03:50:59.403Z,2.40
2023-02-28T03:53:36.435Z,2.50
2023-02-28T03:56:15.190Z,2.40
2023-02-28T03:58:51.797Z,2.30
2023-02-28T04:01:28.389Z,2.30
2023-02-28T04:03:59.171Z,2.40
2023-02-28T04:06:29.677Z,2.30
2023-02-28T04:09:02.670Z,2.30
2023-02-28T04:11:37.842Z,2.50
2023-02-28T04:14:08.978Z,2.20
2023-02-28T04:16:42.397Z,2.30
2023-02-28T04:19:14.646Z,2.30
2023-02-28T04:21:46.630Z,2.30
2023-02-28T04:24:21.856Z,2.30
2023-02-28T04:26:54.053Z,2.30
2023-02-28T04:29:26.374Z,2.30
2023-02-28T04:31:59.067Z,2.40
2023-02-28T04:34:30.262Z,2.40
2023-02-28T04:37:16.962Z,2.30
2023-02-28T04:39:50.048Z,2.30
2023-02-28T04:42:20.535Z,2.40
2023-02-28T04:44:51.064Z,2.30
2023-02-28T04:47:21.621Z,2.40
2023-02-28T04:49:51.889Z,2.20
2023-02-28T04:52:22.231Z,2.30
2023-02-28T04:54:55.173Z,2.20
2023-02-28T04:57:25.546Z,2.30
2023-02-28T04:59:55.787Z,2.20
2023-02-28T05:02:26.123Z,2.30
2023-02-28T05:04:59.174Z,2.20
2023-02-28T05:07:29.568Z,2.20
2023-02-28T05:10:02.458Z,2.10
2023-02-28T05:12:32.972Z,2.20
2023-02-28T05:15:03.499Z,2.20
2023-02-28T05:17:33.959Z,2.10
2023-02-28T05:20:16.491Z,2.10
2023-02-28T05:22:47.598Z,2.10
2023-02-28T05:25:23.691Z,2.10
2023-02-28T05:27:53.999Z,2.10
2023-02-28T05:30:24.772Z,2.20
2023-02-28T05:32:56.094Z,2.10
2023-02-28T05:35:26.431Z,2.20
2023-02-28T05:37:57.252Z,2.20
2023-02-28T05:40:30.083Z,2.20
2023-02-28T05:43:00.408Z,2.20
2023-02-28T05:45:30.919Z,2.20
2023-02-28T05:48:01.234Z,2.20
2023-02-28T05:50:31.758Z,2.20
2023-02-28T05:53:02.076Z,2.30
2023-02-28T05:55:37.048Z,2.30
2023-02-28T05:58:07.553Z,2.30
2023-02-28T06:00:37.935Z,2.20
2023-02-28T06:03:08.231Z,2.30
2023-02-28T06:05:39.638Z,2.40
2023-02-28T06:08:10.199Z,2.20
2023-02-28T06:10:43.085Z,2.20
2023-02-28T06:13:13.903Z,2.20
2023-02-28T06:15:44.525Z,2.40
2023-02-28T06:18:15.132Z,2.40
2023-02-28T06:20:45.594Z,2.40
2023-02-28T06:23:15.902Z,2.20
2023-02-28T06:25:51.796Z,2.20
2023-02-28T06:28:22.069Z,2.30
2023-02-28T06:30:52.405Z,2.30
2023-02-28T06:33:22.736Z,2.20
2023-02-28T06:35:54.621Z,2.30
2023-02-28T06:38:24.951Z,2.20
2023-02-28T06:41:01.490Z,2.30
2023-02-28T06:43:33.457Z,2.20
2023-02-28T06:46:05.614Z,2.30
2023-02-28T06:48:36.204Z,2.20
2023-02-28T06:51:08.092Z,2.20
2023-02-28T06:53:38.793Z,2.20
2023-02-28T06:56:13.925Z,2.20
2023-02-28T06:58:45.104Z,2.20
2023-02-28T07:01:17.355Z,2.20
2023-02-28T07:03:47.722Z,2.20
2023-02-28T07:06:19.067Z,2.20
2023-02-28T07:08:49.505Z,2.20
2023-02-28T07:11:23.687Z,2.30
2023-02-28T07:13:54.207Z,2.20
2023-02-28T07:16:24.944Z,2.20
2023-02-28T07:18:57.322Z,2.20
2023-02-28T07:21:28.119Z,2.30
2023-02-28T07:23:59.788Z,2.20
2023-02-28T07:26:35.205Z,2.30
2023-02-28T07:29:06.010Z,2.20
2023-02-28T07:31:36.373Z,2.20
2023-02-28T07:34:07.007Z,2.30
2023-02-28T07:36:37.452Z,2.20
2023-02-28T07:39:10.533Z,2.30
2023-02-28T07:41:44.706Z,2.20
2023-02-28T07:44:15.433Z,2.30
2023-02-28T07:46:45.973Z,2.30
2023-02-28T07:49:16.317Z,2.20
2023-02-28T07:51:46.626Z,2.30
2023-02-28T07:54:16.977Z,2.30
2023-02-28T07:56:50.003Z,2.40
2023-02-28T07:59:20.387Z,2.30
2023-02-28T08:01:51.528Z,2.30
2023-02-28T08:04:22.208Z,2.30
2023-02-28T08:06:53.164Z,2.40
2023-02-28T08:09:23.734Z,2.40
2023-02-28T08:11:56.838Z,2.30
2023-02-28T08:14:27.328Z,2.40
2023-02-28T08:16:57.661Z,2.50
2023-02-28T08:19:28.121Z,2.50
2023-02-28T08:21:58.863Z,2.40
2023-02-28T08:24:29.241Z,2.40
2023-02-28T08:27:02.167Z,2.50
2023-02-28T08:29:32.575Z,2.50
2023-02-28T08:32:02.997Z,2.70
2023-02-28T08:34:33.513Z,2.60
2023-02-28T08:37:03.933Z,2.60
2023-02-28T08:39:34.348Z,2.70
2023-02-28T08:42:08.309Z,2.70
2023-02-28T08:44:39.053Z,2.70
2023-02-28T08:47:09.398Z,2.70
2023-02-28T08:49:40.378Z,3.00
2023-02-28T08:52:10.721Z,2.90
2023-02-28T08:54:41.132Z,2.90
2023-02-28T08:57:14.215Z,2.80
2023-02-28T08:59:44.786Z,3.00
2023-02-28T09:02:17.217Z,2.80
2023-02-28T09:04:48.502Z,2.90
2023-02-28T09:07:18.897Z,3.00
2023-02-28T09:09:58.808Z,2.90
2023-02-28T09:12:36.838Z,3.10
2023-02-28T09:15:08.761Z,3.00
2023-02-28T09:17:39.136Z,3.00
2023-02-28T09:20:11.350Z,3.00
2023-02-28T09:22:41.811Z,3.10
2023-02-28T09:25:12.327Z,3.20
2023-02-28T09:27:46.652Z,3.10
2023-02-28T09:30:17.795Z,3.20
2023-02-28T09:32:53.098Z,3.30
2023-02-28T09:35:23.971Z,3.30
2023-02-28T09:37:55.672Z,3.50
2023-02-28T09:40:28.795Z,3.40
2023-02-28T09:43:04.132Z,3.50
2023-02-28T09:45:39.261Z,3.50
2023-02-28T09:48:17.179Z,3.60
2023-02-28T09:50:52.023Z,3.60
2023-02-28T09:53:31.390Z,3.60
2023-02-28T09:56:03.346Z,3.60
2023-02-28T09:58:43.022Z,3.70
2023-02-28T10:01:23.788Z,3.70
2023-02-28T10:04:00.901Z,3.90
2023-02-28T10:06:34.229Z,3.90
2023-02-28T10:09:07.377Z,4.00
2023-02-28T10:11:40.007Z,4.00
2023-02-28T10:14:19.859Z,4.00
2023-02-28T10:16:53.188Z,4.00
2023-02-28T10:19:28.798Z,4.10
2023-02-28T10:22:02.812Z,4.20
2023-02-28T10:24:38.676Z,4.20
2023-02-28T10:27:18.016Z,4.20
2023-02-28T10:29:54.306Z,4.30
2023-02-28T10:32:29.440Z,4.40
2023-02-28T10:35:03.515Z,4.50
2023-02-28T10:37:39.268Z,4.60
2023-02-28T10:40:13.085Z,4.70
2023-02-28T10:42:43.540Z,4.70
2023-02-28T10:45:21.075Z,4.60
2023-02-28T10:47:57.860Z,4.70
2023-02-28T10:50:35.074Z,4.70
2023-02-28T10:53:19.924Z,4.70
2023-02-28T10:56:02.036Z,4.80
2023-02-28T10:58:34.124Z,5.00
2023-02-28T11:01:07.289Z,5.00
2023-02-28T11:03:39.180Z,5.10
2023-02-28T11:06:12.479Z,5.10
2023-02-28T11:08:49.909Z,5.20
2023-02-28T11:11:29.171Z,5.30
2023-02-28T11:14:02.380Z,5.30
2023-02-28T11:16:40.693Z,5.20
2023-02-28T11:19:22.350Z,5.30
2023-02-28T11:21:59.640Z,5.30
2023-02-28T11:24:32.731Z,5.50
2023-02-28T11:27:03.175Z,5.60
2023-02-28T11:29:35.845Z,5.40
2023-02-28T11:32:16.834Z,5.40
2023-02-28T11:34:48.108Z,5.60
2023-02-28T11:37:21.562Z,5.70
2023-02-28T11:39:51.912Z,5.90
2023-02-28T11:42:43.172Z,5.90
2023-02-28T11:45:24.478Z,6.00
2023-02-28T11:48:05.051Z,5.90
2023-02-28T11:50:49.852Z,5.80
2023-02-28T11:53:33.247Z,6.00
2023-02-28T11:56:09.803Z,6.10
2023-02-28T11:58:54.950Z,6.10
2023-02-28T12:01:38.570Z,6.10
2023-02-28T12:04:25.486Z,6.20
2023-02-28T12:07:03.849Z,6.20
2023-02-28T12:09:50.832Z,6.30
2023-02-28T12:12:33.664Z,6.40
2023-02-28T12:15:24.830Z,6.40
2023-02-28T12:18:16.672Z,6.50
2023-02-28T12:20:58.088Z,6.60
2023-02-28T12:23:50.943Z,6.80
2023-02-28T12:26:26.817Z,6.60
2023-02-28T12:29:02.185Z,6.80
2023-02-28T12:31:38.006Z,6.90
2023-02-28T12:34:13.821Z,6.90
2023-02-28T12:36:49.446Z,7.00
2023-02-28T12:39:24.852Z,7.10
2023-02-28T12:41:59.920Z,7.10
2023-02-28T12:44:36.641Z,7.00
2023-02-28T12:47:12.821Z,7.00
2023-02-28T12:49:50.364Z,7.10
2023-02-28T12:52:29.684Z,7.00
2023-02-28T12:55:07.878Z,7.10
2023-02-28T12:57:42.756Z,7.20
2023-02-28T13:00:19.417Z,7.30
2023-02-28T13:03:20.535Z,7.40
2023-02-28T13:06:19.615Z,7.30
2023-02-28T13:09:13.538Z,7.30
2023-02-28T13:11:46.038Z,7.30
2023-02-28T13:14:39.372Z,7.20
2023-02-28T13:17:16.316Z,7.20
2023-02-28T13:19:49.931Z,7.40
2023-02-28T13:22:39.729Z,7.60
2023-02-28T13:25:54.661Z,7.70
2023-02-28T13:28:55.039Z,7.60
2023-02-28T13:31:28.533Z,7.60
2023-02-28T13:34:18.762Z,7.70
2023-02-28T13:36:49.232Z,7.60
2023-02-28T13:39:49.476Z,7.70
2023-02-28T13:42:38.694Z,7.80
2023-02-28T13:45:29.212Z,7.70
2023-02-28T13:48:04.548Z,7.80
2023-02-28T13:50:39.188Z,7.80
2023-02-28T13:53:43.270Z,7.80
2023-02-28T13:56:36.932Z,7.70
2023-02-28T13:59:23.634Z,7.80
2023-02-28T14:02:05.366Z,7.80
2023-02-28T14:05:04.441Z,7.70
2023-02-28T14:07:37.245Z,7.90
2023-02-28T14:10:10.120Z,7.90
2023-02-28T14:13:02.953Z,7.90
2023-02-28T14:15:51.498Z,7.90
2023-02-28T14:18:32.129Z,7.80
2023-02-28T14:21:13.979Z,7.80
2023-02-28T14:24:04.002Z,7.90
2023-02-28T14:26:48.391Z,7.80
2023-02-28T14:29:49.499Z,7.80
2023-02-28T14:32:31.499Z,7.70
2023-02-28T14:35:16.157Z,7.90
2023-02-28T14:37:49.786Z,7.90
2023-02-28T14:40:24.476Z,7.80
2023-02-28T14:43:00.832Z,7.80
2023-02-28T14:45:34.582Z,7.70
2023-02-28T14:48:08.135Z,7.90
2023-02-28T14:50:40.915Z,7.70
2023-02-28T14:53:21.939Z,7.80
2023-02-28T14:55:54.002Z,7.90
2023-02-28T14:58:27.886Z,7.90
2023-02-28T15:01:00.646Z,7.90
2023-02-28T15:03:36.704Z,7.90
2023-02-28T15:06:09.103Z,7.90
2023-02-28T15:08:42.422Z,7.90
2023-02-28T15:11:17.417Z,7.80
2023-02-28T15:13:50.985Z,7.90
2023-02-28T15:16:24.228Z,7.70
2023-02-28T15:18:57.472Z,7.70
2023-02-28T15:21:30.154Z,7.70
2023-02-28T15:24:07.891Z,7.70
2023-02-28T15:26:41.773Z,7.80
2023-02-28T15:29:17.954Z,7.80
2023-02-28T15:31:57.256Z,7.70
2023-02-28T15:34:42.866Z,7.70
2023-02-28T15:37:32.760Z,7.80
2023-02-28T15:40:15.938Z,7.80
2023-02-28T15:42:47.623Z,7.70
2023-02-28T15:45:32.831Z,7.70
2023-02-28T15:48:14.211Z,7.70
2023-02-28T15:50:45.221Z,7.60
2023-02-28T15:53:19.600Z,7.60
2023-02-28T15:55:58.366Z,7.50
2023-02-28T15:58:29.323Z,7.40
2023-02-28T16:01:12.363Z,7.40
2023-02-28T16:03:47.262Z,7.40
2023-02-28T16:06:45.843Z,7.50
2023-02-28T16:09:17.834Z,7.50
2023-02-28T16:11:52.922Z,7.40
2023-02-28T16:14:25.013Z,7.40
2023-02-28T16:16:57.156Z,7.30
2023-02-28T16:19:27.810Z,7.30
2023-02-28T16:21:58.206Z,7.30
2023-02-28T16:24:28.717Z,7.30
2023-02-28T16:27:02.488Z,7.20
2023-02-28T16:29:37.711Z,7.20
2023-02-28T16:32:09.329Z,7.40
2023-02-28T16:34:39.802Z,7.10
2023-02-28T16:37:15.795Z,7.10
2023-02-28T16:39:46.515Z,7.10
2023-02-28T16:42:28.828Z,7.10
2023-02-28T16:44:59.842Z,7.10
2023-02-28T16:47:32.920Z,7.10
2023-02-28T16:50:03.237Z,7.00
2023-02-28T16:52:33.690Z,7.00
2023-02-28T16:55:04.035Z,6.90
2023-02-28T16:57:37.310Z,6.90
2023-02-28T17:00:09.140Z,6.90
2023-02-28T17:02:41.521Z,6.90
2023-02-28T17:05:15.306Z,6.90
2023-02-28T17:07:46.909Z,6.90
2023-02-28T17:10:19.610Z,6.80
2023-02-28T17:12:55.010Z,6.80
2023-02-28T17:15:26.968Z,6.80
2023-02-28T17:17:57.454Z,7.00
2023-02-28T17:20:27.846Z,6.90
2023-02-28T17:22:58.755Z,6.90
2023-02-28T17:25:29.147Z,6.80
2023-02-28T17:28:02.112Z,6.80
2023-02-28T17:30:32.498Z,6.70
2023-02-28T17:33:02.825Z,6.70
2023-02-28T17:35:33.152Z,6.70
2023-02-28T17:38:03.523Z,6.60
2023-02-28T17:40:35.274Z,6.70
2023-02-28T17:43:09.032Z,6.60
2023-02-28T17:45:40.688Z,6.60
2023-02-28T17:48:13.683Z,6.60
2023-02-28T17:50:44.703Z,6.40
2023-02-28T17:53:15.485Z,6.40
2023-02-28T17:55:46.279Z,6.40
2023-02-28T17:58:20.975Z,6.30
2023-02-28T18:00:55.007Z,6.40
2023-02-28T18:03:26.999Z,6.40
2023-02-28T18:05:58.039Z,6.40
2023-02-28T18:08:28.426Z,6.30
2023-02-28T18:10:58.798Z,6.30
2023-02-28T18:13:32.874Z,6.30
2023-02-28T18:16:03.192Z,6.20
2023-02-28T18:18:33.477Z,6.20
2023-02-28T18:21:04.043Z,6.20
2023-02-28T18:23:34.333Z,6.10
2023-02-28T18:26:05.068Z,6.10
2023-02-28T18:28:38.055Z,6.20
2023-02-28T18:31:12.397Z,6.00
2023-02-28T18:33:42.726Z,5.90
2023-02-28T18:36:13.586Z,5.90
2023-02-28T18:38:44.361Z,5.90
2023-02-28T18:41:14.971Z,6.00
2023-02-28T18:43:47.878Z,5.90
2023-02-28T18:46:20.729Z,5.90
2023-02-28T18:48:51.396Z,5.80
2023-02-28T18:51:24.312Z,5.80
2023-02-28T18:53:55.418Z,5.80
2023-02-28T18:56:27.996Z,5.70
2023-02-28T18:59:00.954Z,5.70
2023-02-28T19:01:33.722Z,5.70
2023-02-28T19:04:05.643Z,5.70
2023-02-28T19:06:38.262Z,5.60
2023-02-28T19:09:09.638Z,5.70
2023-02-28T19:11:40.414Z,5.60
2023-02-28T19:14:13.472Z,5.70
2023-02-28T19:16:43.886Z,5.50
2023-02-28T19:19:14.237Z,5.70
2023-02-28T19:21:44.597Z,5.60
2023-02-28T19:24:14.850Z,5.50
2023-02-28T19:26:45.176Z,5.50
2023-02-28T19:29:18.027Z,5.50
2023-02-28T19:31:48.473Z,5.50
2023-02-28T19:34:18.777Z,5.40
2023-02-28T19:36:50.116Z,5.40
2023-02-28T19:39:20.746Z,5.50
2023-02-28T19:41:51.249Z,5.30
2023-02-28T19:44:24.988Z,5.30
2023-02-28T19:46:55.746Z,5.30
2023-02-28T19:49:26.872Z,5.30
2023-02-28T19:51:57.312Z,5.30
2023-02-28T19:54:27.904Z,5.30
2023-02-28T19:56:58.756Z,5.30
2023-02-28T19:59:39.432Z,5.20
2023-02-28T20:02:15.625Z,5.20
2023-02-28T20:04:49.361Z,5.20
2023-02-28T20:07:20.428Z,5.20
2023-02-28T20:09:51.441Z,5.20
2023-02-28T20:12:24.346Z,5.10
2023-02-28T20:14:59.943Z,5.10
2023-02-28T20:17:32.409Z,5.20
2023-02-28T20:20:02.712Z,5.00
2023-02-28T20:22:38.257Z,5.00
2023-02-28T20:25:11.564Z,5.00
2023-02-28T20:27:41.904Z,5.00
2023-02-28T20:30:15.861Z,5.00
2023-02-28T20:32:46.198Z,4.90
2023-02-28T20:35:16.724Z,4.90
2023-02-28T20:37:47.393Z,4.90
2023-02-28T20:40:18.096Z,4.90
2023-02-28T20:42:48.416Z,4.80
2023-02-28T20:45:21.452Z,4.90
2023-02-28T20:47:51.835Z,4.80
2023-02-28T20:50:22.668Z,4.90
2023-02-28T20:52:53.235Z,4.70
2023-02-28T20:55:23.619Z,4.70
2023-02-28T20:57:54.368Z,4.70
2023-02-28T21:00:27.796Z,4.70
2023-02-28T21:02:58.968Z,4.70
2023-02-28T21:05:29.477Z,4.70
2023-02-28T21:07:59.882Z,4.70
2023-02-28T21:10:30.463Z,4.70
2023-02-28T21:13:00.900Z,4.60
2023-02-28T21:15:34.174Z,4.60
2023-02-28T21:18:04.561Z,4.60
2023-02-28T21:20:35.026Z,4.60
2023-02-28T21:23:06.818Z,4.70
2023-02-28T21:25:37.248Z,4.50
2023-02-28T21:28:08.271Z,4.50
2023-02-28T21:30:42.717Z,4.50
2023-02-28T21:33:13.047Z,4.40
2023-02-28T21:35:43.380Z,4.40
2023-02-28T21:38:14.019Z,4.40
2023-02-28T21:40:44.534Z,4.30
2023-02-28T21:43:14.912Z,4.50
2023-02-28T21:45:48.068Z,4.40
2023-02-28T21:48:18.390Z,4.40
2023-02-28T21:50:59.080Z,4.20
2023-02-28T21:53:29.422Z,4.40
2023-02-28T21:56:03.253Z,4.30
2023-02-28T21:58:33.997Z,4.30
2023-02-28T22:01:12.426Z,4.30
2023-02-28T22:03:42.787Z,4.20
2023-02-28T22:06:14.986Z,4.10
2023-02-28T22:08:46.108Z,4.20
2023-02-28T22:11:18.230Z,4.10
2023-02-28T22:13:51.717Z,4.20
2023-02-28T22:16:26.079Z,4.10
2023-02-28T22:18:56.711Z,4.20
2023-02-28T22:21:27.704Z,4.10
2023-02-28T22:23:58.100Z,4.10
2023-02-28T22:26:30.761Z,4.10
2023-02-28T22:29:01.635Z,4.00
2023-02-28T22:31:36.420Z,4.00
2023-02-28T22:34:09.433Z,4.10
2023-02-28T22:36:40.300Z,3.90
2023-02-28T22:39:10.985Z,3.90
2023-02-28T22:41:42.217Z,3.90
2023-02-28T22:44:13.771Z,3.90
2023-02-28T22:46:46.805Z,3.90
2023-02-28T22:49:17.135Z,3.90
2023-02-28T22:51:47.449Z,4.00
2023-02-28T22:54:17.900Z,3.80
2023-02-28T22:56:48.384Z,3.80
2023-02-28T22:59:18.794Z,3.80
2023-02-28T23:01:51.738Z,3.80
2023-02-28T23:04:25.767Z,3.80
2023-02-28T23:06:56.138Z,3.70
2023-02-28T23:09:26.571Z,3.70
2023-02-28T23:11:56.940Z,3.80
2023-02-28T23:14:27.267Z,3.70
2023-02-28T23:17:00.282Z,3.80
2023-02-28T23:19:33.096Z,3.70
2023-02-28T23:22:05.635Z,3.70
2023-02-28T23:24:37.995Z,3.70
2023-02-28T23:27:09.532Z,3.60
2023-02-28T23:29:40.261Z,3.80
2023-02-28T23:32:13.328Z,3.70
2023-02-28T23:34:43.952Z,3.60
2023-02-28T23:37:14.248Z,3.60
2023-02-28T23:39:44.548Z,3.60
2023-02-28T23:42:15.135Z,3.70
2023-02-28T23:44:45.434Z,3.50
2023-02-28T23:47:18.357Z,3.50
2023-02-28T23:49:48.700Z,3.50
2023-02-28T23:52:19.003Z,3.40
2023-02-28T23:54:49.712Z,3.40
2023-02-28T23:57:20.004Z,3.40
2023-02-28T23:59:50.446Z,3.40
